Time;durP1;ratioP1;P1;durP2;ratioP2;P2;SDS_P1;SDS_P2;PMS_P1;PMS_P2;Temp;Humidity;BMP_temperature;BMP_pressure;BME280_temperature;BME280_humidity;BME280_pressure;Samples;Min_cycle;Max_cycle;Signal;HPM_P1;HPM_P2
2022/07/31 00:02:21;;;;;;;2.97;2.67;;;26.70;61.00;;;;;;4969625;28;20460;-72
2022/07/31 00:04:49;;;;;;;2.70;2.50;;;26.70;61.10;;;;;;4954666;29;20509;-72
2022/07/31 00:07:17;;;;;;;3.10;2.77;;;26.70;61.00;;;;;;4955495;28;20924;-71
2022/07/31 00:09:43;;;;;;;2.70;2.40;;;26.70;61.10;;;;;;4935237;29;20479;-72
2022/07/31 00:12:12;;;;;;;2.43;2.23;;;26.70;61.10;;;;;;4919308;29;20461;-72
2022/07/31 00:14:40;;;;;;;3.67;3.10;;;26.70;61.10;;;;;;4954314;29;20768;-72
2022/07/31 00:17:08;;;;;;;2.90;2.67;;;26.70;61.20;;;;;;4954085;29;20415;-72
2022/07/31 00:19:36;;;;;;;3.03;2.70;;;26.60;61.10;;;;;;4955184;28;20420;-71
2022/07/31 00:22:02;;;;;;;2.80;2.60;;;26.60;61.10;;;;;;4947423;29;21000;-72
2022/07/31 00:24:28;;;;;;;3.37;2.83;;;26.60;61.20;;;;;;4919097;29;20417;-72
2022/07/31 00:26:55;;;;;;;3.00;2.70;;;26.60;61.30;;;;;;4940734;29;20488;-72
2022/07/31 00:29:21;;;;;;;2.93;2.40;;;26.60;61.30;;;;;;4953703;29;20453;-71
2022/07/31 00:31:48;;;;;;;2.60;2.40;;;26.60;61.40;;;;;;4950568;29;21012;-71
2022/07/31 00:34:17;;;;;;;4.80;2.70;;;26.60;61.40;;;;;;4921857;29;20468;-71
2022/07/31 00:36:48;;;;;;;3.10;2.80;;;26.60;61.50;;;;;;4953133;29;20412;-72
2022/07/31 00:39:14;;;;;;;2.73;2.17;;;26.50;61.40;;;;;;4937687;29;20498;-72
2022/07/31 00:41:42;;;;;;;3.40;2.80;;;26.60;61.60;;;;;;4969765;28;21011;-72
2022/07/31 00:44:12;;;;;;;3.93;2.60;;;26.50;61.50;;;;;;4938046;29;20450;-72
2022/07/31 00:46:39;;;;;;;3.33;2.80;;;26.50;61.50;;;;;;4937949;29;20463;-72
2022/07/31 00:49:08;;;;;;;2.90;2.60;;;26.50;61.60;;;;;;4940075;29;20451;-72
2022/07/31 00:51:36;;;;;;;2.60;2.40;;;26.50;61.60;;;;;;4923544;29;20493;-72
2022/07/31 00:54:08;;;;;;;4.07;3.17;;;26.50;61.70;;;;;;4934374;29;20455;-71
2022/07/31 00:56:34;;;;;;;2.90;2.70;;;26.50;61.80;;;;;;4934577;29;20438;-71
2022/07/31 00:59:00;;;;;;;3.00;2.77;;;26.50;61.80;;;;;;4931094;29;20435;-72
2022/07/31 01:01:29;;;;;;;3.30;2.90;;;26.40;61.80;;;;;;4952765;28;20454;-71
2022/07/31 01:03:55;;;;;;;3.57;3.27;;;26.40;61.80;;;;;;4933914;29;20765;-72
2022/07/31 01:06:21;;;;;;;3.30;3.00;;;26.40;61.90;;;;;;4934515;29;20466;-72
2022/07/31 01:08:52;;;;;;;3.00;2.70;;;26.40;61.90;;;;;;4950697;28;20477;-72
2022/07/31 01:11:46;;;;;;;3.20;2.90;;;26.40;62.00;;;;;;4953216;29;20486;-72
2022/07/31 01:14:20;;;;;;;3.33;3.03;;;26.40;62.10;;;;;;4953268;29;20791;-71
2022/07/31 01:17:07;;;;;;;3.10;2.60;;;26.40;62.20;;;;;;4934109;29;20428;-72
2022/07/31 01:19:42;;;;;;;3.27;2.97;;;26.40;62.20;;;;;;4949836;29;20408;-71
2022/07/31 01:22:46;;;;;;;3.43;3.17;;;26.40;63.00;;;;;;4933866;29;20440;-71
2022/07/31 01:25:27;;;;;;;3.00;2.80;;;26.30;62.20;;;;;;4949547;29;20415;-71
2022/07/31 01:28:48;;;;;;;3.73;3.07;;;26.30;62.30;;;;;;4938525;29;20576;-71
2022/07/31 01:31:24;;;;;;;3.67;3.37;;;26.30;62.40;;;;;;4933830;29;20439;-72
2022/07/31 01:34:02;;;;;;;3.30;3.00;;;26.30;62.50;;;;;;4934261;29;20413;-72
2022/07/31 01:36:35;;;;;;;4.37;3.97;;;26.30;62.70;;;;;;4918464;29;20795;-71
2022/07/31 01:39:03;;;;;;;4.03;3.40;;;26.30;62.60;;;;;;4936026;29;20431;-71
2022/07/31 01:41:44;;;;;;;3.33;2.87;;;26.20;62.60;;;;;;4937479;28;20467;-72
2022/07/31 01:44:14;;;;;;;3.60;3.30;;;26.20;62.70;;;;;;4941599;29;20441;-71
2022/07/31 01:46:48;;;;;;;3.43;3.10;;;26.30;62.90;;;;;;4952930;29;20441;-72
2022/07/31 01:49:17;;;;;;;3.77;3.47;;;26.20;62.80;;;;;;4936604;29;20478;-71
2022/07/31 01:51:49;;;;;;;3.60;3.30;;;26.20;62.80;;;;;;4933710;29;20427;-72
2022/07/31 01:54:20;;;;;;;5.77;3.10;;;26.20;62.90;;;;;;4902323;29;20424;-72
2022/07/31 01:56:48;;;;;;;3.57;3.27;;;26.20;63.00;;;;;;4934021;29;20944;-72
2022/07/31 01:59:23;;;;;;;3.47;3.17;;;26.20;63.10;;;;;;4933934;29;20403;-72
2022/07/31 02:02:11;;;;;;;3.90;3.60;;;26.20;63.10;;;;;;4924813;29;20449;-71
2022/07/31 02:04:38;;;;;;;3.80;3.10;;;26.10;63.00;;;;;;4958868;28;20746;-71
2022/07/31 02:07:10;;;;;;;3.63;3.27;;;26.10;63.00;;;;;;4939407;28;20467;-71
2022/07/31 02:09:37;;;;;;;4.83;3.37;;;26.10;63.10;;;;;;4956031;28;20474;-72
2022/07/31 02:12:11;;;;;;;3.90;3.50;;;26.10;63.10;;;;;;4952921;29;20450;-72
2022/07/31 02:14:46;;;;;;;3.60;3.10;;;26.10;63.10;;;;;;4954332;28;20916;-71
2022/07/31 02:17:16;;;;;;;4.10;3.20;;;26.10;63.10;;;;;;4924687;29;20429;-71
2022/07/31 02:20:04;;;;;;;3.67;3.37;;;26.10;63.20;;;;;;4946568;29;20937;-72
2022/07/31 02:22:32;;;;;;;4.00;3.30;;;26.10;63.20;;;;;;4971903;28;20485;-71
2022/07/31 02:24:59;;;;;;;3.73;3.43;;;26.10;63.20;;;;;;4940393;29;20411;-71
2022/07/31 02:27:29;;;;;;;3.43;3.13;;;26.00;63.10;;;;;;4954674;29;20446;-72
2022/07/31 02:29:58;;;;;;;3.30;3.00;;;26.00;63.10;;;;;;4929507;29;20462;-71
2022/07/31 02:32:25;;;;;;;3.07;2.77;;;26.00;63.10;;;;;;4972209;28;20438;-72
2022/07/31 02:34:58;;;;;;;5.63;3.73;;;26.00;63.20;;;;;;4956167;29;20510;-72
2022/07/31 02:37:25;;;;;;;3.03;2.70;;;26.00;63.20;;;;;;4937716;29;20553;-72
2022/07/31 02:39:53;;;;;;;3.60;3.30;;;26.00;63.30;;;;;;4937067;29;20921;-72
2022/07/31 02:42:22;;;;;;;6.53;2.97;;;26.00;63.30;;;;;;4938098;29;20955;-71
2022/07/31 02:44:49;;;;;;;3.50;3.20;;;26.00;63.30;;;;;;4936790;29;20443;-72
2022/07/31 02:47:21;;;;;;;3.40;2.80;;;26.00;63.30;;;;;;4936744;29;20448;-72
2022/07/31 02:49:48;;;;;;;3.93;3.23;;;25.90;63.30;;;;;;4939302;29;20478;-72
2022/07/31 02:52:18;;;;;;;3.73;3.10;;;25.90;63.30;;;;;;4956578;28;20484;-72
2022/07/31 02:54:47;;;;;;;3.47;3.17;;;25.90;63.40;;;;;;4955614;29;20809;-71
2022/07/31 02:57:13;;;;;;;4.13;3.30;;;25.90;63.40;;;;;;4956816;29;20439;-71
2022/07/31 02:59:43;;;;;;;3.43;3.13;;;25.90;63.40;;;;;;4939968;29;20458;-71
2022/07/31 03:02:12;;;;;;;5.23;3.13;;;25.90;63.40;;;;;;4971288;28;20451;-72
2022/07/31 03:04:46;;;;;;;3.50;3.20;;;25.90;63.40;;;;;;4971586;28;20426;-72
2022/07/31 03:07:12;;;;;;;3.67;3.10;;;25.90;63.50;;;;;;4939665;29;20459;-72
2022/07/31 03:09:43;;;;;;;3.40;3.10;;;25.90;63.50;;;;;;4939531;29;20494;-72
2022/07/31 03:12:32;;;;;;;3.10;2.80;;;25.90;63.50;;;;;;4942491;29;20419;-72
2022/07/31 03:14:59;;;;;;;3.30;3.00;;;25.80;63.40;;;;;;4955326;29;20421;-72
2022/07/31 03:17:32;;;;;;;3.23;2.93;;;25.90;63.50;;;;;;4953640;29;20454;-72
2022/07/31 03:20:00;;;;;;;3.57;3.23;;;25.80;63.40;;;;;;4920840;29;20455;-71
2022/07/31 03:22:26;;;;;;;3.47;3.17;;;25.80;63.40;;;;;;4949343;29;20527;-72
2022/07/31 03:24:54;;;;;;;3.30;3.00;;;25.80;63.50;;;;;;4954721;28;20888;-72
2022/07/31 03:27:23;;;;;;;4.00;3.70;;;25.80;63.50;;;;;;4954195;29;20791;-72
2022/07/31 03:29:54;;;;;;;3.47;3.17;;;25.80;63.50;;;;;;4955322;29;20947;-72
2022/07/31 03:32:20;;;;;;;3.23;2.93;;;25.80;63.40;;;;;;4939332;29;20497;-72
2022/07/31 03:34:52;;;;;;;3.20;2.90;;;25.80;63.40;;;;;;4970515;28;20991;-72
2022/07/31 03:37:20;;;;;;;3.30;3.00;;;25.70;63.30;;;;;;4939524;29;20494;-72
2022/07/31 03:39:48;;;;;;;3.57;3.27;;;25.70;63.30;;;;;;4946271;29;20420;-72
2022/07/31 03:42:17;;;;;;;3.83;3.00;;;25.70;63.30;;;;;;4942945;29;20549;-71
2022/07/31 03:44:54;;;;;;;4.50;3.30;;;25.70;63.30;;;;;;4924218;29;20490;-72
2022/07/31 03:47:20;;;;;;;3.43;3.13;;;25.70;63.30;;;;;;4955018;29;20463;-72
2022/07/31 03:49:47;;;;;;;3.70;3.30;;;25.70;63.30;;;;;;4954723;29;20502;-72
2022/07/31 03:52:23;;;;;;;3.40;3.10;;;25.70;63.40;;;;;;4939887;29;20446;-72
2022/07/31 03:54:51;;;;;;;3.00;2.80;;;25.70;63.40;;;;;;4954612;29;20427;-72
2022/07/31 03:57:31;;;;;;;3.53;3.23;;;25.60;63.20;;;;;;4952771;29;20516;-72
2022/07/31 04:00:01;;;;;;;3.57;3.13;;;25.60;63.30;;;;;;4945287;29;20490;-71
2022/07/31 04:02:32;;;;;;;3.73;3.40;;;25.60;63.30;;;;;;4935106;29;20965;-70
2022/07/31 04:05:04;;;;;;;3.13;2.83;;;25.60;63.30;;;;;;4932999;29;20513;-72
2022/07/31 04:07:32;;;;;;;3.23;2.83;;;25.60;63.30;;;;;;4936635;28;20879;-72
2022/07/31 04:09:58;;;;;;;3.77;3.30;;;25.60;63.30;;;;;;4932237;29;21007;-72
2022/07/31 04:12:24;;;;;;;3.00;2.43;;;25.60;63.30;;;;;;4938490;29;20534;-72
2022/07/31 04:14:52;;;;;;;3.30;3.00;;;25.60;63.30;;;;;;4954322;29;20755;-72
2022/07/31 04:17:21;;;;;;;2.97;2.73;;;25.60;63.30;;;;;;4954341;29;20459;-72
2022/07/31 04:19:49;;;;;;;3.67;3.37;;;25.60;63.40;;;;;;4953734;29;20426;-71
2022/07/31 04:22:18;;;;;;;3.73;2.90;;;25.60;63.30;;;;;;4955220;28;20458;-71
2022/07/31 04:24:44;;;;;;;3.00;2.70;;;25.50;63.20;;;;;;4921620;29;20589;-72
2022/07/31 04:27:46;;;;;;;3.13;2.83;;;25.50;63.20;;;;;;4876976;29;20915;-71
2022/07/31 04:30:12;;;;;;;2.80;2.60;;;25.60;63.30;;;;;;4922687;29;20518;-72
2022/07/31 04:32:39;;;;;;;3.73;3.20;;;25.50;63.30;;;;;;4957687;28;20810;-71
2022/07/31 04:35:08;;;;;;;3.20;2.90;;;25.50;63.30;;;;;;4953932;29;20510;-72
2022/07/31 04:37:37;;;;;;;2.83;2.57;;;25.50;63.40;;;;;;4954756;28;20943;-72
2022/07/31 04:40:06;;;;;;;3.10;2.90;;;25.50;63.40;;;;;;4937735;29;20441;-71
2022/07/31 04:42:32;;;;;;;3.30;3.00;;;25.50;63.40;;;;;;4937929;29;20427;-71
2022/07/31 04:45:03;;;;;;;3.30;3.00;;;25.50;63.40;;;;;;4953688;29;20498;-72
2022/07/31 04:47:31;;;;;;;3.43;3.00;;;25.40;63.30;;;;;;4935901;29;20469;-72
2022/07/31 04:49:58;;;;;;;4.70;2.80;;;25.40;63.30;;;;;;4934597;29;20459;-72
2022/07/31 04:52:24;;;;;;;3.30;3.00;;;25.40;63.30;;;;;;4921635;29;20530;-72
2022/07/31 04:54:58;;;;;;;3.77;3.10;;;25.40;63.40;;;;;;4922740;29;20462;-72
2022/07/31 04:57:27;;;;;;;5.67;3.63;;;25.40;63.30;;;;;;4938101;29;20427;-72
2022/07/31 04:59:55;;;;;;;2.97;2.70;;;25.40;63.30;;;;;;4953637;29;20422;-71
2022/07/31 05:02:23;;;;;;;8.33;3.97;;;25.40;63.40;;;;;;4949668;29;20494;-71
2022/07/31 05:04:52;;;;;;;3.13;2.90;;;25.40;63.50;;;;;;4953780;29;20408;-72
2022/07/31 05:07:22;;;;;;;5.00;3.30;;;25.40;63.40;;;;;;4953240;29;20447;-71
2022/07/31 05:09:53;;;;;;;5.23;2.80;;;25.40;63.40;;;;;;4969541;28;20470;-72
2022/07/31 05:12:24;;;;;;;3.13;2.83;;;25.40;63.40;;;;;;4922408;29;20458;-71
2022/07/31 05:14:53;;;;;;;3.30;2.77;;;25.40;63.40;;;;;;4954873;28;20400;-72
2022/07/31 05:17:19;;;;;;;3.57;2.60;;;25.40;63.40;;;;;;4953731;29;20943;-71
2022/07/31 05:20:11;;;;;;;3.60;3.30;;;25.30;63.30;;;;;;4953310;29;20471;-72
2022/07/31 05:22:57;;;;;;;3.87;3.17;;;25.30;63.40;;;;;;4940297;29;20411;-72
2022/07/31 05:25:39;;;;;;;3.63;2.93;;;25.30;63.40;;;;;;4953386;29;20443;-71
2022/07/31 05:28:05;;;;;;;3.80;3.43;;;25.30;63.40;;;;;;4953313;29;20960;-71
2022/07/31 05:30:33;;;;;;;3.83;3.10;;;25.30;63.50;;;;;;4953275;29;20452;-71
2022/07/31 05:32:59;;;;;;;4.20;3.30;;;25.30;63.50;;;;;;4923256;29;20468;-72
2022/07/31 05:35:28;;;;;;;3.40;3.10;;;25.30;63.50;;;;;;4946425;28;20430;-72
2022/07/31 05:37:54;;;;;;;2.93;2.60;;;25.30;63.50;;;;;;4953326;29;20403;-72
2022/07/31 05:40:33;;;;;;;4.20;3.47;;;25.30;63.60;;;;;;4952746;29;20443;-72
2022/07/31 05:43:32;;;;;;;3.70;3.40;;;25.30;63.60;;;;;;4944633;29;20771;-72
2022/07/31 05:46:12;;;;;;;3.40;2.90;;;25.20;63.60;;;;;;4936498;29;20443;-72
2022/07/31 05:48:40;;;;;;;3.20;2.90;;;25.20;63.80;;;;;;4969035;28;20451;-71
2022/07/31 05:51:11;;;;;;;4.70;3.33;;;25.20;63.80;;;;;;4957163;28;20958;-71
2022/07/31 05:53:39;;;;;;;4.30;3.13;;;25.20;63.80;;;;;;4973089;28;20403;-72
2022/07/31 05:56:24;;;;;;;3.20;2.90;;;25.20;64.10;;;;;;4954993;29;20442;-72
2022/07/31 05:58:53;;;;;;;3.53;2.47;;;25.20;64.10;;;;;;4956943;29;20751;-72
2022/07/31 06:01:21;;;;;;;3.47;3.17;;;25.20;63.90;;;;;;4972854;28;20473;-72
2022/07/31 06:03:47;;;;;;;3.43;2.87;;;25.20;63.80;;;;;;4972979;28;20466;-72
2022/07/31 06:06:18;;;;;;;4.53;3.30;;;25.20;64.60;;;;;;4956720;29;20900;-72
2022/07/31 06:08:44;;;;;;;4.50;3.30;;;25.20;63.90;;;;;;4972592;28;20454;-71
2022/07/31 06:11:10;;;;;;;3.27;2.87;;;25.20;64.10;;;;;;4972732;28;20431;-71
2022/07/31 06:13:36;;;;;;;4.60;3.07;;;25.20;64.20;;;;;;4956379;29;20433;-71
2022/07/31 06:16:22;;;;;;;2.80;2.60;;;25.20;64.20;;;;;;4939109;29;20453;-71
2022/07/31 06:18:51;;;;;;;3.60;3.27;;;25.20;64.10;;;;;;4957380;28;20450;-72
2022/07/31 06:21:18;;;;;;;3.20;2.90;;;25.20;63.90;;;;;;4940506;29;20208;-72
2022/07/31 06:23:44;;;;;;;4.70;3.63;;;25.20;64.00;;;;;;4972546;28;20399;-72
2022/07/31 06:26:27;;;;;;;2.93;2.50;;;25.10;63.90;;;;;;4956257;29;20932;-72
2022/07/31 06:28:56;;;;;;;3.27;2.97;;;25.20;64.10;;;;;;4934895;29;20479;-72
2022/07/31 06:31:24;;;;;;;3.40;3.10;;;25.20;64.10;;;;;;4952827;29;20465;-72
2022/07/31 06:33:54;;;;;;;3.47;3.17;;;25.10;64.10;;;;;;4972660;28;20433;-72
2022/07/31 06:36:26;;;;;;;3.93;2.93;;;25.10;64.20;;;;;;4959238;28;20442;-72
2022/07/31 06:39:00;;;;;;;4.37;3.00;;;25.10;64.60;;;;;;4975360;28;20444;-72
2022/07/31 06:44:33;;;;;;;3.20;3.00;;;25.10;64.70;;;;;;4976476;28;20504;-72
2022/07/31 06:47:19;;;;;;;3.67;2.97;;;25.10;64.80;;;;;;4976415;28;20437;-72
2022/07/31 06:49:56;;;;;;;3.23;2.93;;;25.10;64.70;;;;;;4976469;28;20441;-72
2022/07/31 06:52:28;;;;;;;3.47;3.17;;;25.10;64.50;;;;;;4975356;28;20458;-72
2022/07/31 06:54:55;;;;;;;2.93;2.63;;;25.10;64.80;;;;;;4975185;28;20950;-72
2022/07/31 06:57:23;;;;;;;2.80;2.40;;;25.00;64.80;;;;;;4957089;28;20453;-72
2022/07/31 06:59:55;;;;;;;2.77;2.57;;;25.00;65.10;;;;;;4958993;28;20426;-72
2022/07/31 07:02:21;;;;;;;2.73;2.53;;;25.10;65.30;;;;;;4975013;28;20477;-72
2022/07/31 07:04:49;;;;;;;3.30;2.97;;;25.10;65.40;;;;;;5000067;23;20506;-76
2022/07/31 07:07:16;;;;;;;3.07;2.80;;;25.00;65.10;;;;;;4920440;29;20560;-76
2022/07/31 07:09:44;;;;;;;2.67;2.47;;;25.00;65.20;;;;;;4952539;28;20441;-76
2022/07/31 07:12:15;;;;;;;2.90;2.20;;;25.00;65.20;;;;;;4942371;29;20443;-76
2022/07/31 07:14:41;;;;;;;3.43;2.43;;;25.00;65.30;;;;;;4955694;29;20427;-76
2022/07/31 07:17:09;;;;;;;2.40;2.20;;;25.00;65.30;;;;;;4939784;29;20421;-76
2022/07/31 07:19:43;;;;;;;3.10;2.80;;;25.00;65.20;;;;;;4955380;29;20419;-76
2022/07/31 07:22:10;;;;;;;3.50;2.57;;;25.00;65.30;;;;;;4923233;29;20502;-76
2022/07/31 07:24:36;;;;;;;2.93;2.70;;;25.00;65.90;;;;;;4943097;29;20443;-76
2022/07/31 07:27:07;;;;;;;5.47;2.70;;;25.00;66.30;;;;;;4937903;29;20426;-76
2022/07/31 07:29:40;;;;;;;2.53;2.33;;;25.00;68.50;;;;;;4956108;28;20838;-77
2022/07/31 07:32:06;;;;;;;4.83;2.60;;;24.90;68.80;;;;;;4966991;28;20516;-76
2022/07/31 07:34:33;;;;;;;5.50;3.10;;;24.90;68.50;;;;;;4939823;29;20446;-76
2022/07/31 07:36:59;;;;;;;4.30;2.67;;;24.90;69.00;;;;;;4946888;29;20454;-76
2022/07/31 07:39:28;;;;;;;2.13;1.93;;;24.80;69.20;;;;;;4938069;29;20455;-76
2022/07/31 07:41:55;;;;;;;4.10;2.57;;;24.80;69.00;;;;;;4952737;29;20854;-76
2022/07/31 07:44:21;;;;;;;2.33;2.10;;;24.80;68.80;;;;;;4949320;29;20506;-76
2022/07/31 07:46:47;;;;;;;2.67;2.43;;;24.80;68.50;;;;;;4950606;29;20432;-76
2022/07/31 07:49:16;;;;;;;3.83;2.60;;;24.80;68.70;;;;;;4928758;29;20465;-76
2022/07/31 07:51:55;;;;;;;2.70;2.33;;;24.80;68.90;;;;;;4950186;29;20459;-76
2022/07/31 07:54:42;;;;;;;3.83;2.70;;;24.80;69.00;;;;;;4934914;29;20424;-76
2022/07/31 07:57:18;;;;;;;5.00;2.30;;;24.80;69.10;;;;;;4945621;28;20420;-76
2022/07/31 07:59:54;;;;;;;2.43;2.23;;;24.80;69.10;;;;;;4952390;28;20467;-75
2022/07/31 08:02:43;;;;;;;2.13;2.00;;;24.80;69.90;;;;;;4961225;28;20531;-77
2022/07/31 08:05:10;;;;;;;2.40;2.20;;;24.80;70.40;;;;;;4974125;28;20506;-77
2022/07/31 08:07:42;;;;;;;3.60;2.30;;;24.80;70.00;;;;;;4974523;28;20451;-78
2022/07/31 08:10:29;;;;;;;2.40;2.20;;;24.80;70.20;;;;;;4956764;29;20455;-78
2022/07/31 08:13:04;;;;;;;2.10;1.90;;;24.90;70.40;;;;;;4943905;29;20438;-78
2022/07/31 08:15:54;;;;;;;2.40;2.20;;;24.80;71.10;;;;;;4964733;28;20526;-78
2022/07/31 08:18:30;;;;;;;2.20;1.90;;;24.80;70.30;;;;;;4955313;29;20474;-78
2022/07/31 08:20:56;;;;;;;2.57;2.33;;;24.90;70.20;;;;;;4954651;29;20481;-78
2022/07/31 08:23:24;;;;;;;2.33;2.13;;;24.90;69.90;;;;;;4974970;28;20857;-78
2022/07/31 08:25:53;;;;;;;2.83;2.20;;;24.80;69.60;;;;;;4943820;29;20482;-78
2022/07/31 08:28:19;;;;;;;3.60;2.17;;;24.80;69.70;;;;;;4955360;29;20484;-78
2022/07/31 08:30:48;;;;;;;2.83;2.20;;;24.80;69.60;;;;;;4924867;29;20460;-78
2022/07/31 08:33:16;;;;;;;2.57;1.90;;;24.90;69.90;;;;;;4924718;29;20436;-78
2022/07/31 08:35:51;;;;;;;2.20;2.00;;;24.90;70.00;;;;;;4947829;29;20446;-78
2022/07/31 08:38:22;;;;;;;2.03;1.83;;;24.90;69.70;;;;;;4941464;29;20447;-78
2022/07/31 08:41:37;;;;;;;3.07;2.00;;;24.90;69.60;;;;;;4930214;29;20535;-78
2022/07/31 08:44:08;;;;;;;2.13;1.63;;;24.90;69.90;;;;;;4941530;29;20416;-78
2022/07/31 08:46:38;;;;;;;2.30;2.10;;;24.90;70.40;;;;;;4940630;29;20941;-78
2022/07/31 08:49:08;;;;;;;2.13;1.70;;;24.90;70.50;;;;;;4941766;29;20472;-78
2022/07/31 08:51:37;;;;;;;3.73;1.90;;;24.90;70.30;;;;;;4923927;29;20506;-78
2022/07/31 08:54:14;;;;;;;1.77;1.67;;;24.90;70.50;;;;;;4958758;29;20784;-78
2022/07/31 08:56:41;;;;;;;2.10;1.90;;;24.90;70.70;;;;;;4959534;29;20406;-78
2022/07/31 08:59:10;;;;;;;2.80;1.90;;;24.90;71.10;;;;;;4958964;29;20427;-78
2022/07/31 09:01:37;;;;;;;1.70;1.60;;;24.90;70.70;;;;;;4958826;28;20955;-78
2022/07/31 09:04:06;;;;;;;2.70;2.50;;;24.90;70.60;;;;;;4946244;29;20468;-78
2022/07/31 09:06:32;;;;;;;1.90;1.70;;;24.90;70.50;;;;;;4908401;29;20416;-78
2022/07/31 09:08:58;;;;;;;2.07;1.40;;;24.90;70.80;;;;;;4950638;28;20465;-78
2022/07/31 09:11:25;;;;;;;1.63;1.53;;;24.90;70.90;;;;;;4973430;28;20462;-78
2022/07/31 09:14:06;;;;;;;2.50;2.17;;;24.90;70.80;;;;;;4944448;29;20458;-78
2022/07/31 09:16:49;;;;;;;1.87;1.47;;;24.90;70.70;;;;;;4942741;29;20978;-78
2022/07/31 09:19:23;;;;;;;1.33;1.23;;;24.90;70.70;;;;;;4970842;28;20462;-78
2022/07/31 09:21:51;;;;;;;4.60;2.10;;;24.90;70.70;;;;;;4961674;28;20446;-78
2022/07/31 09:24:33;;;;;;;2.10;1.90;;;24.90;70.60;;;;;;4946373;28;20938;-78
2022/07/31 09:27:06;;;;;;;1.93;1.50;;;24.90;70.70;;;;;;4965640;28;20450;-78
2022/07/31 09:29:47;;;;;;;2.30;2.10;;;24.90;71.10;;;;;;4962955;28;20414;-78
2022/07/31 09:32:34;;;;;;;4.33;1.70;;;24.90;70.80;;;;;;4964335;28;20443;-78
2022/07/31 09:35:19;;;;;;;2.10;1.90;;;24.90;71.30;;;;;;4958593;28;20423;-78
2022/07/31 09:37:46;;;;;;;2.30;1.57;;;24.90;70.80;;;;;;4933955;29;20435;-78
2022/07/31 09:40:35;;;;;;;1.73;1.63;;;24.90;70.90;;;;;;4958935;29;20478;-78
2022/07/31 09:43:27;;;;;;;1.70;1.60;;;24.90;70.90;;;;;;4934675;29;20435;-76
2022/07/31 09:45:58;;;;;;;2.13;1.97;;;24.90;70.70;;;;;;4918682;29;20576;-78
2022/07/31 09:48:26;;;;;;;2.27;1.80;;;24.90;70.70;;;;;;4942811;29;20957;-75
2022/07/31 09:51:00;;;;;;;2.43;1.80;;;24.90;70.70;;;;;;4952124;29;20530;-75
2022/07/31 09:53:49;;;;;;;2.13;1.93;;;25.00;70.70;;;;;;4953922;29;20399;-77
2022/07/31 09:56:34;;;;;;;1.83;1.67;;;25.00;70.70;;;;;;4954785;29;20469;-84
2022/07/31 09:59:02;;;;;;;1.87;1.77;;;25.00;70.90;;;;;;4924919;29;20977;-84
2022/07/31 10:01:36;;;;;;;4.23;1.80;;;25.00;71.00;;;;;;4942881;29;20509;-81
2022/07/31 10:04:05;;;;;;;1.60;1.50;;;25.00;70.70;;;;;;4955260;29;20828;-82
2022/07/31 10:06:34;;;;;;;2.20;2.00;;;25.00;70.70;;;;;;4938304;29;20438;-77
2022/07/31 10:09:02;;;;;;;2.23;2.03;;;25.00;71.00;;;;;;4922949;29;20511;-76
2022/07/31 10:11:50;;;;;;;1.83;1.73;;;25.00;70.90;;;;;;4954821;29;20460;-77
2022/07/31 10:14:28;;;;;;;2.43;1.70;;;25.00;71.00;;;;;;4940495;28;20421;-75
2022/07/31 10:16:59;;;;;;;1.70;1.60;;;25.00;71.00;;;;;;4953760;28;20442;-75
2022/07/31 10:19:48;;;;;;;2.20;2.00;;;25.00;70.80;;;;;;4934852;29;20887;-75
2022/07/31 10:22:24;;;;;;;1.70;1.60;;;25.00;70.70;;;;;;4947864;29;20446;-80
2022/07/31 10:24:52;;;;;;;2.40;1.80;;;25.00;70.90;;;;;;4938586;29;20439;-77
2022/07/31 10:27:19;;;;;;;2.67;2.13;;;25.00;71.10;;;;;;4952429;29;20513;-78
2022/07/31 10:29:51;;;;;;;1.80;1.70;;;25.00;71.20;;;;;;4937893;29;21314;-77
2022/07/31 10:32:22;;;;;;;2.30;2.10;;;25.00;71.10;;;;;;4933472;29;20547;-75
2022/07/31 10:35:12;;;;;;;2.20;2.00;;;25.00;71.00;;;;;;4975583;28;20429;-75
2022/07/31 10:38:16;;;;;;;4.37;1.80;;;25.00;70.60;;;;;;4951093;28;20454;-78
2022/07/31 10:41:19;;;;;;;2.10;1.90;;;25.00;70.80;;;;;;4926368;29;20455;-77
2022/07/31 10:43:50;;;;;;;3.20;2.00;;;25.10;71.10;;;;;;4938895;29;20414;-77
2022/07/31 10:46:39;;;;;;;2.17;1.97;;;25.10;71.10;;;;;;4938947;29;20407;-78
2022/07/31 10:49:41;;;;;;;2.40;2.20;;;25.10;71.60;;;;;;4931784;29;20436;-78
2022/07/31 10:52:35;;;;;;;1.87;1.67;;;25.10;71.50;;;;;;4951620;29;20481;-77
2022/07/31 10:55:22;;;;;;;2.23;2.03;;;25.10;71.60;;;;;;4959453;28;20406;-77
2022/07/31 10:58:28;;;;;;;2.00;1.80;;;25.10;71.80;;;;;;4923002;29;20451;-77
2022/07/31 11:01:07;;;;;;;2.20;1.90;;;25.10;72.00;;;;;;4925066;29;20450;-77
2022/07/31 11:04:06;;;;;;;1.97;1.80;;;25.10;71.80;;;;;;4914482;29;20472;-78
2022/07/31 11:06:58;;;;;;;2.43;1.87;;;25.20;72.00;;;;;;4938471;29;20436;-77
2022/07/31 11:09:43;;;;;;;2.53;2.33;;;25.20;72.10;;;;;;4939808;29;20491;-77
2022/07/31 11:12:34;;;;;;;2.20;2.00;;;25.20;72.50;;;;;;4941504;28;20858;-78
2022/07/31 11:15:22;;;;;;;2.77;2.30;;;25.20;72.60;;;;;;4957794;29;20887;-78
2022/07/31 11:18:17;;;;;;;2.17;1.97;;;25.20;72.50;;;;;;4957273;29;20449;-77
2022/07/31 11:21:06;;;;;;;3.37;2.17;;;25.20;72.50;;;;;;4957273;29;20439;-78
2022/07/31 11:23:33;;;;;;;2.70;2.37;;;25.20;72.20;;;;;;4939462;29;20400;-77
2022/07/31 11:26:09;;;;;;;2.47;2.27;;;25.20;72.40;;;;;;4936856;29;20459;-76
2022/07/31 11:28:35;;;;;;;2.57;2.37;;;25.20;72.60;;;;;;4920997;29;20471;-77
2022/07/31 11:31:05;;;;;;;2.60;2.40;;;25.20;72.50;;;;;;4953161;29;20436;-77
2022/07/31 11:33:39;;;;;;;3.17;2.40;;;25.20;72.80;;;;;;4950707;28;20455;-77
2022/07/31 11:36:05;;;;;;;2.40;2.10;;;25.20;72.90;;;;;;4956703;29;20439;-78
2022/07/31 11:38:35;;;;;;;2.90;2.70;;;25.30;73.60;;;;;;4954302;29;20462;-75
2022/07/31 11:41:04;;;;;;;2.10;2.00;;;25.30;73.40;;;;;;4938284;29;20891;-76
2022/07/31 11:43:36;;;;;;;2.80;2.40;;;25.30;73.80;;;;;;4955286;29;20422;-77
2022/07/31 11:46:03;;;;;;;2.40;2.30;;;25.30;73.30;;;;;;4969388;28;20540;-77
2022/07/31 11:48:32;;;;;;;2.43;2.23;;;25.30;73.30;;;;;;4937054;29;20565;-77
2022/07/31 11:51:03;;;;;;;2.53;2.10;;;25.30;73.70;;;;;;4954710;29;20451;-77
2022/07/31 11:53:39;;;;;;;5.37;2.70;;;25.30;73.60;;;;;;4939082;29;20541;-77
2022/07/31 11:56:05;;;;;;;4.10;2.40;;;25.30;73.40;;;;;;4937068;28;20430;-77
2022/07/31 11:58:32;;;;;;;2.73;2.30;;;25.30;73.20;;;;;;4926114;29;20436;-78
2022/07/31 12:01:03;;;;;;;3.73;2.33;;;25.40;73.40;;;;;;4952472;29;20458;-77
2022/07/31 12:03:35;;;;;;;2.60;2.40;;;25.40;73.20;;;;;;4945703;29;21072;-76
2022/07/31 12:06:08;;;;;;;2.53;2.33;;;25.40;73.30;;;;;;4954507;29;20935;-73
2022/07/31 12:08:35;;;;;;;2.90;2.57;;;25.40;73.30;;;;;;4944502;29;20491;-76
2022/07/31 12:11:04;;;;;;;2.83;2.63;;;25.40;73.60;;;;;;4935720;29;20427;-76
2022/07/31 12:13:31;;;;;;;2.57;2.30;;;25.40;73.60;;;;;;4951220;29;20523;-77
2022/07/31 12:16:09;;;;;;;2.60;2.40;;;25.40;73.60;;;;;;4951506;29;20404;-76
2022/07/31 12:18:45;;;;;;;2.77;2.57;;;25.40;73.80;;;;;;4968768;28;20454;-81
2022/07/31 12:21:12;;;;;;;2.37;2.20;;;25.50;73.80;;;;;;4954488;28;20446;-80
2022/07/31 12:23:43;;;;;;;3.33;3.03;;;25.50;73.80;;;;;;4935733;29;20439;-79
2022/07/31 12:26:29;;;;;;;2.80;2.60;;;25.50;73.60;;;;;;4947571;29;20479;-78
2022/07/31 12:29:01;;;;;;;3.17;2.87;;;25.50;73.50;;;;;;4937716;29;20476;-80
2022/07/31 12:31:29;;;;;;;3.13;2.47;;;25.60;73.60;;;;;;4938640;29;20792;-80
2022/07/31 12:33:56;;;;;;;2.90;2.70;;;25.60;73.80;;;;;;4956480;28;20465;-80
2022/07/31 12:36:22;;;;;;;2.80;2.60;;;25.60;73.60;;;;;;4939860;29;20474;-80
2022/07/31 12:39:04;;;;;;;2.53;2.33;;;25.60;73.50;;;;;;4957180;29;20435;-80
2022/07/31 12:41:43;;;;;;;3.53;2.83;;;25.60;73.30;;;;;;4973592;28;20537;-80
2022/07/31 12:44:14;;;;;;;2.70;2.50;;;25.60;73.60;;;;;;4959428;28;20439;-79
2022/07/31 12:46:41;;;;;;;3.00;2.80;;;25.70;73.70;;;;;;4957098;28;20479;-80
2022/07/31 12:49:09;;;;;;;2.80;2.60;;;25.70;73.30;;;;;;4926943;29;21043;-79
2022/07/31 12:51:38;;;;;;;2.70;2.50;;;25.70;73.10;;;;;;4938668;29;20479;-80
2022/07/31 12:54:08;;;;;;;3.13;2.93;;;25.70;73.10;;;;;;4938632;29;20530;-80
2022/07/31 12:56:41;;;;;;;3.70;2.93;;;25.70;73.00;;;;;;4938848;29;20424;-80
2022/07/31 12:59:35;;;;;;;3.30;2.80;;;25.80;73.00;;;;;;4947895;28;20453;-80
2022/07/31 13:02:05;;;;;;;4.23;2.80;;;25.80;73.10;;;;;;4944306;28;20493;-80
2022/07/31 13:04:31;;;;;;;3.50;3.20;;;25.80;73.30;;;;;;4961113;28;20438;-80
2022/07/31 13:07:03;;;;;;;3.70;3.40;;;25.80;73.30;;;;;;4960025;29;20917;-80
2022/07/31 13:09:29;;;;;;;3.30;3.00;;;25.80;73.50;;;;;;4939279;29;20470;-80
2022/07/31 13:11:57;;;;;;;4.83;2.97;;;25.80;73.50;;;;;;4940485;29;20439;-80
2022/07/31 13:14:30;;;;;;;3.97;3.37;;;25.80;73.50;;;;;;4972984;28;20533;-79
2022/07/31 13:16:56;;;;;;;3.33;2.87;;;25.80;73.50;;;;;;4947795;28;20446;-81
2022/07/31 13:19:27;;;;;;;3.57;3.07;;;25.80;73.30;;;;;;4946979;28;20435;-80
2022/07/31 13:21:55;;;;;;;3.37;3.07;;;25.80;73.10;;;;;;4959785;29;20462;-80